createdAt,value
2017-10-26T00:02:27.476Z,69.60
2017-10-26T00:04:55.559Z,69.90
2017-10-26T00:07:23.863Z,70.70
2017-10-26T00:09:52.719Z,71.50
2017-10-26T00:12:20.804Z,71.40
2017-10-26T00:14:48.889Z,71.10
2017-10-26T00:17:16.970Z,70.10
2017-10-26T00:19:45.824Z,71.50
2017-10-26T00:22:13.895Z,71.50
2017-10-26T00:24:41.988Z,72.30
2017-10-26T00:27:10.063Z,72.60
2017-10-26T00:29:38.143Z,73.00
2017-10-26T00:32:06.245Z,73.00
2017-10-26T00:34:34.337Z,73.40
2017-10-26T00:37:02.425Z,72.40
2017-10-26T00:39:30.511Z,73.60
2017-10-26T00:41:58.596Z,73.70
2017-10-26T00:44:26.685Z,73.50
2017-10-26T00:46:55.540Z,75.30
2017-10-26T00:49:23.647Z,75.30
2017-10-26T00:51:52.504Z,75.90
2017-10-26T00:54:20.596Z,75.90
2017-10-26T00:56:48.681Z,76.00
2017-10-26T00:59:16.768Z,75.40
2017-10-26T01:01:45.616Z,75.50
2017-10-26T01:04:13.743Z,75.50
2017-10-26T01:06:41.816Z,75.50
2017-10-26T01:09:09.912Z,75.60
2017-10-26T01:11:38.760Z,76.50
2017-10-26T01:14:07.618Z,77.90
2017-10-26T01:16:35.705Z,77.80
2017-10-26T01:19:03.791Z,78.30
2017-10-26T01:21:32.640Z,78.90
2017-10-26T01:24:00.735Z,78.90
2017-10-26T01:26:28.823Z,79.60
2017-10-26T01:28:57.688Z,80.40
2017-10-26T01:31:25.777Z,79.80
2017-10-26T01:33:53.873Z,79.90
2017-10-26T01:36:22.732Z,80.70
2017-10-26T01:38:50.811Z,80.70
2017-10-26T01:41:18.892Z,80.30
2017-10-26T01:43:46.988Z,80.00
2017-10-26T01:46:15.835Z,80.90
2017-10-26T01:48:43.932Z,80.80
2017-10-26T01:51:12.016Z,80.90
2017-10-26T01:53:40.870Z,80.30
2017-10-26T01:56:08.960Z,80.30
2017-10-26T01:58:37.051Z,81.20
2017-10-26T02:01:05.131Z,81.40
2017-10-26T02:03:33.983Z,81.50
2017-10-26T02:06:02.068Z,81.30
2017-10-26T02:08:30.163Z,81.70
2017-10-26T02:10:59.017Z,81.80
2017-10-26T02:13:27.117Z,81.80
2017-10-26T02:15:55.207Z,82.10
2017-10-26T02:18:24.068Z,81.90
2017-10-26T02:20:52.148Z,81.80
2017-10-26T02:23:20.239Z,82.00
2017-10-26T02:25:49.088Z,82.00
2017-10-26T02:28:21.211Z,82.00
2017-10-26T02:33:57.465Z,81.50
2017-10-26T02:36:25.549Z,81.80
2017-10-26T02:38:54.404Z,81.50
2017-10-26T02:41:22.492Z,81.50
2017-10-26T02:43:50.581Z,81.40
2017-10-26T02:46:19.458Z,81.10
2017-10-26T02:48:48.362Z,81.00
2017-10-26T02:51:16.435Z,81.00
2017-10-26T02:53:45.298Z,81.10
2017-10-26T02:56:13.374Z,81.00
2017-10-26T02:58:41.474Z,80.80
2017-10-26T03:01:09.556Z,80.40
2017-10-26T03:03:38.404Z,80.30
2017-10-26T03:06:06.480Z,80.30
2017-10-26T03:08:34.576Z,79.30
2017-10-26T03:11:02.644Z,78.80
2017-10-26T03:13:30.866Z,79.10
2017-10-26T03:15:58.943Z,78.70
2017-10-26T03:18:27.987Z,78.60
2017-10-26T03:20:56.081Z,78.50
2017-10-26T03:23:24.191Z,78.40
2017-10-26T03:25:52.284Z,78.20
2017-10-26T03:28:20.456Z,78.00
2017-10-26T03:30:48.772Z,78.00
2017-10-26T03:33:17.622Z,78.50
2017-10-26T03:35:45.716Z,78.40
2017-10-26T03:38:13.799Z,78.10
2017-10-26T03:40:41.897Z,78.50
2017-10-26T03:43:10.756Z,78.20
2017-10-26T03:45:38.856Z,78.20
2017-10-26T03:48:07.702Z,77.80
2017-10-26T03:50:36.617Z,77.80
2017-10-26T03:53:04.693Z,77.70
2017-10-26T03:55:32.783Z,77.50
2017-10-26T03:58:01.631Z,77.60
2017-10-26T04:00:29.746Z,77.50
2017-10-26T04:02:58.592Z,76.80
2017-10-26T04:05:26.698Z,76.80
2017-10-26T04:07:54.776Z,76.30
2017-10-26T04:10:23.636Z,76.40
2017-10-26T04:12:51.735Z,76.30
2017-10-26T04:15:19.830Z,76.90
2017-10-26T04:17:47.900Z,76.30
2017-10-26T04:20:16.002Z,75.60
2017-10-26T04:22:44.084Z,75.20
2017-10-26T04:25:12.185Z,75.70
2017-10-26T04:27:40.268Z,76.20
2017-10-26T04:30:08.351Z,75.80
2017-10-26T04:32:37.204Z,76.30
2017-10-26T04:35:05.743Z,76.30
2017-10-26T04:37:33.836Z,76.30
2017-10-26T04:40:01.925Z,76.60
2017-10-26T04:42:30.017Z,76.50
2017-10-26T04:44:58.135Z,76.40
2017-10-26T04:47:26.244Z,76.30
2017-10-26T04:49:54.347Z,76.30
2017-10-26T04:52:22.431Z,76.30
2017-10-26T04:54:51.302Z,76.40
2017-10-26T04:57:19.375Z,76.30
2017-10-26T04:59:47.467Z,76.70
2017-10-26T05:02:16.371Z,76.70
2017-10-26T05:04:45.234Z,76.90
2017-10-26T05:07:13.316Z,76.90
2017-10-26T05:09:41.408Z,76.30
2017-10-26T05:12:10.271Z,76.30
2017-10-26T05:14:38.357Z,76.30
2017-10-26T05:17:07.221Z,76.50
2017-10-26T05:19:35.332Z,76.30
2017-10-26T05:22:04.191Z,76.40
2017-10-26T05:24:32.280Z,76.30
2017-10-26T05:27:00.356Z,75.80
2017-10-26T05:29:28.439Z,75.70
2017-10-26T05:31:57.316Z,75.00
2017-10-26T05:34:25.410Z,74.90
2017-10-26T05:36:54.268Z,75.60
2017-10-26T05:39:22.369Z,75.50
2017-10-26T05:41:51.221Z,76.40
2017-10-26T05:44:19.315Z,76.40
2017-10-26T05:46:47.394Z,76.40
2017-10-26T05:49:15.466Z,76.30
2017-10-26T05:51:44.323Z,76.70
2017-10-26T05:54:12.412Z,76.70
2017-10-26T05:56:40.507Z,76.40
2017-10-26T05:59:09.366Z,76.40
2017-10-26T06:01:37.468Z,76.30
2017-10-26T06:04:06.329Z,75.90
2017-10-26T06:06:34.426Z,75.90
2017-10-26T06:09:03.281Z,75.00
2017-10-26T06:11:31.380Z,74.90
2017-10-26T06:13:59.460Z,75.20
2017-10-26T06:16:27.547Z,76.00
2017-10-26T06:18:56.400Z,74.80
2017-10-26T06:21:24.489Z,74.70
2017-10-26T06:23:52.571Z,74.90
2017-10-26T06:26:20.657Z,74.70
2017-10-26T06:28:49.531Z,74.40
2017-10-26T06:31:17.620Z,74.40
2017-10-26T06:33:46.469Z,73.20
2017-10-26T06:36:14.560Z,73.20
2017-10-26T06:38:42.653Z,72.00
2017-10-26T06:41:11.515Z,72.90
2017-10-26T06:43:39.606Z,72.80
2017-10-26T06:46:08.476Z,72.70
2017-10-26T06:48:36.572Z,72.70
2017-10-26T06:51:04.656Z,72.40
2017-10-26T06:53:34.417Z,73.00
2017-10-26T06:56:02.519Z,72.90
2017-10-26T06:58:30.612Z,73.50
2017-10-26T07:00:59.477Z,72.30
2017-10-26T07:03:27.563Z,72.40
2017-10-26T07:05:55.656Z,71.60
2017-10-26T07:08:24.598Z,71.10
2017-10-26T07:10:52.674Z,71.10
2017-10-26T07:13:20.754Z,70.70
2017-10-26T07:15:48.849Z,70.10
2017-10-26T07:18:16.936Z,69.80
2017-10-26T07:20:45.789Z,68.40
2017-10-26T07:23:13.889Z,68.40
2017-10-26T07:25:42.963Z,68.30
2017-10-26T07:28:11.052Z,68.30
2017-10-26T07:30:39.178Z,68.60
2017-10-26T07:33:08.041Z,68.30
2017-10-26T07:35:36.902Z,68.40
2017-10-26T07:38:04.996Z,69.10
2017-10-26T07:40:33.847Z,67.80
2017-10-26T07:43:01.937Z,67.80
2017-10-26T07:45:30.030Z,68.40
2017-10-26T07:47:58.901Z,68.50
2017-10-26T07:50:26.981Z,68.40
2017-10-26T07:52:55.090Z,68.10
2017-10-26T07:55:23.184Z,67.90
2017-10-26T07:57:52.030Z,66.00
2017-10-26T08:00:20.895Z,66.00
2017-10-26T08:02:48.984Z,65.90
2017-10-26T08:05:17.068Z,64.90
2017-10-26T08:07:45.936Z,65.10
2017-10-26T08:10:14.029Z,65.00
2017-10-26T08:12:42.894Z,63.80
2017-10-26T08:15:10.981Z,63.80
2017-10-26T08:17:39.071Z,62.50
2017-10-26T08:20:07.921Z,60.70
2017-10-26T08:22:36.010Z,60.40
2017-10-26T08:25:04.118Z,61.00
2017-10-26T08:27:32.988Z,62.50
2017-10-26T08:30:01.080Z,62.50
2017-10-26T08:32:29.957Z,60.50
2017-10-26T08:34:58.816Z,60.50
2017-10-26T08:37:26.908Z,60.40
2017-10-26T08:39:55.009Z,60.70
2017-10-26T08:42:23.866Z,60.50
2017-10-26T08:44:51.951Z,60.50
2017-10-26T08:47:20.052Z,59.50
2017-10-26T08:49:48.149Z,60.50
2017-10-26T08:52:16.239Z,60.20
2017-10-26T08:54:44.327Z,59.10
2017-10-26T08:57:12.468Z,58.80
2017-10-26T08:59:40.551Z,58.80
2017-10-26T09:02:09.411Z,59.00
2017-10-26T09:04:37.511Z,58.80
2017-10-26T09:07:05.618Z,58.80
2017-10-26T09:09:33.705Z,59.40
2017-10-26T09:12:02.581Z,59.40
2017-10-26T09:14:30.668Z,59.30
2017-10-26T09:16:59.529Z,57.90
2017-10-26T09:19:27.616Z,57.90
2017-10-26T09:21:55.716Z,58.20
2017-10-26T09:24:24.560Z,57.60
2017-10-26T09:26:52.661Z,57.60
2017-10-26T09:29:20.743Z,56.50
2017-10-26T09:31:49.624Z,56.10
2017-10-26T09:34:17.700Z,56.10
2017-10-26T09:36:45.796Z,56.10
2017-10-26T09:39:13.912Z,56.60
2017-10-26T09:41:41.997Z,56.20
2017-10-26T09:44:10.088Z,54.90
2017-10-26T09:46:38.180Z,55.10
2017-10-26T09:49:07.034Z,55.20
2017-10-26T09:51:35.129Z,55.20
2017-10-26T09:54:03.277Z,53.50
2017-10-26T09:56:32.173Z,55.20
2017-10-26T09:59:00.292Z,55.50
2017-10-26T10:01:28.372Z,55.30
2017-10-26T10:03:56.471Z,54.50
2017-10-26T10:06:24.563Z,55.10
2017-10-26T10:08:52.653Z,54.90
2017-10-26T10:11:20.736Z,54.90
2017-10-26T10:13:48.824Z,53.70
2017-10-26T10:16:17.675Z,53.20
2017-10-26T10:18:45.768Z,53.20
2017-10-26T10:21:14.648Z,53.00
2017-10-26T10:23:42.743Z,52.80
2017-10-26T10:26:11.608Z,52.30
2017-10-26T10:28:39.736Z,52.10
2017-10-26T10:31:07.825Z,51.70
2017-10-26T10:33:35.943Z,51.00
2017-10-26T10:36:04.040Z,51.60
2017-10-26T10:38:32.888Z,51.40
2017-10-26T10:41:00.988Z,51.30
2017-10-26T10:43:29.869Z,52.90
2017-10-26T10:45:57.952Z,52.80
2017-10-26T10:48:26.815Z,52.70
2017-10-26T10:50:54.897Z,52.60
2017-10-26T10:53:22.980Z,51.60
2017-10-26T10:55:51.068Z,52.00
2017-10-26T10:58:19.921Z,50.70
2017-10-26T11:00:48.008Z,50.60
2017-10-26T11:03:16.092Z,51.00
2017-10-26T11:05:44.176Z,50.90
2017-10-26T11:08:13.044Z,50.70
2017-10-26T11:10:41.129Z,50.60
2017-10-26T11:13:09.217Z,50.50
2017-10-26T11:15:38.073Z,51.40
2017-10-26T11:18:06.173Z,51.30
2017-10-26T11:20:35.029Z,51.80
2017-10-26T11:23:03.119Z,51.80
2017-10-26T11:25:31.210Z,51.70
2017-10-26T11:28:00.078Z,49.80
2017-10-26T11:30:28.143Z,49.80
2017-10-26T11:32:56.254Z,50.60
2017-10-26T11:35:25.111Z,49.60
2017-10-26T11:37:53.213Z,49.50
2017-10-26T11:40:22.064Z,49.10
2017-10-26T11:42:50.160Z,48.90
2017-10-26T11:45:19.028Z,48.20
2017-10-26T11:47:47.115Z,48.10
2017-10-26T11:50:15.199Z,47.50
2017-10-26T11:52:44.065Z,47.00
2017-10-26T11:55:12.147Z,47.00
2017-10-26T11:57:40.244Z,47.40
2017-10-26T12:00:09.102Z,49.20
2017-10-26T12:02:37.196Z,49.00
2017-10-26T12:05:05.277Z,47.90
2017-10-26T12:07:34.153Z,48.00
2017-10-26T12:10:02.224Z,47.70
2017-10-26T12:12:30.330Z,46.70
2017-10-26T12:14:59.213Z,46.70
2017-10-26T12:17:28.083Z,46.40
2017-10-26T12:19:56.161Z,46.30
2017-10-26T12:22:24.248Z,47.00
2017-10-26T12:24:53.107Z,47.80
2017-10-26T12:27:21.202Z,47.80
2017-10-26T12:29:49.287Z,48.30
2017-10-26T12:32:18.172Z,48.60
2017-10-26T12:34:47.041Z,48.50
2017-10-26T12:37:15.137Z,48.20
2017-10-26T12:39:43.219Z,48.30
2017-10-26T12:42:12.059Z,48.20
2017-10-26T12:44:40.161Z,48.10
2017-10-26T12:47:08.259Z,47.90
2017-10-26T12:49:37.122Z,47.50
2017-10-26T12:52:05.226Z,47.40
2017-10-26T12:54:34.083Z,46.80
2017-10-26T12:57:02.171Z,46.60
2017-10-26T12:59:31.066Z,46.20
2017-10-26T13:01:59.960Z,45.50
2017-10-26T13:04:28.816Z,45.10
2017-10-26T13:06:56.909Z,45.10
2017-10-26T13:09:25.032Z,45.10
2017-10-26T13:11:53.113Z,45.20
2017-10-26T13:14:21.208Z,45.30
2017-10-26T13:16:49.292Z,45.40
2017-10-26T13:19:17.380Z,44.70
2017-10-26T13:21:45.468Z,44.50
2017-10-26T13:24:14.363Z,44.60
2017-10-26T13:26:43.207Z,45.30
2017-10-26T13:29:11.300Z,45.20
2017-10-26T13:31:39.396Z,45.30
2017-10-26T13:34:08.265Z,45.30
2017-10-26T13:36:36.340Z,45.30
2017-10-26T13:39:04.441Z,45.20
2017-10-26T13:41:32.525Z,45.40
2017-10-26T13:44:00.631Z,45.30
2017-10-26T13:46:28.719Z,45.20
2017-10-26T13:48:56.828Z,46.60
2017-10-26T13:51:25.679Z,45.90
2017-10-26T13:53:53.780Z,45.80
2017-10-26T13:56:22.625Z,46.70
2017-10-26T13:58:50.741Z,46.60
2017-10-26T14:01:19.606Z,47.60
2017-10-26T14:03:47.695Z,46.80
2017-10-26T14:06:15.791Z,46.90
2017-10-26T14:08:43.900Z,46.60
2017-10-26T14:11:12.004Z,46.60
2017-10-26T14:13:40.088Z,46.60
2017-10-26T14:16:08.184Z,47.10
2017-10-26T14:18:37.028Z,47.50
2017-10-26T14:21:05.119Z,47.50
2017-10-26T14:23:33.204Z,47.70
2017-10-26T14:26:02.079Z,48.30
2017-10-26T14:28:30.171Z,48.20
2017-10-26T14:30:59.025Z,52.60
2017-10-26T14:33:27.120Z,52.40
2017-10-26T14:35:55.205Z,48.10
2017-10-26T14:38:24.082Z,48.50
2017-10-26T14:40:52.177Z,48.40
2017-10-26T14:43:21.041Z,48.60
2017-10-26T14:45:49.120Z,48.60
2017-10-26T14:48:17.213Z,48.00
2017-10-26T14:50:46.072Z,47.60
2017-10-26T14:53:14.164Z,47.60
2017-10-26T14:55:43.029Z,48.60
2017-10-26T14:58:11.124Z,47.90
2017-10-26T15:00:39.207Z,48.40
2017-10-26T15:03:08.067Z,48.50
2017-10-26T15:05:36.164Z,49.10
2017-10-26T15:08:04.258Z,48.00
2017-10-26T15:10:32.372Z,48.40
2017-10-26T15:13:00.483Z,48.60
2017-10-26T15:15:28.576Z,48.70
2017-10-26T15:17:57.419Z,48.20
2017-10-26T15:20:25.504Z,48.00
2017-10-26T15:22:53.598Z,48.20
2017-10-26T15:25:22.468Z,48.50
2017-10-26T15:27:50.555Z,48.50
2017-10-26T15:30:18.632Z,48.70
2017-10-26T15:32:46.708Z,48.80
2017-10-26T15:35:15.560Z,48.40
2017-10-26T15:37:43.633Z,48.40
2017-10-26T15:40:11.716Z,48.50
2017-10-26T15:42:39.798Z,48.60
2017-10-26T15:45:07.881Z,48.80
2017-10-26T15:47:35.952Z,48.80
2017-10-26T15:50:04.040Z,49.20
2017-10-26T15:52:32.884Z,50.40
2017-10-26T15:55:00.963Z,50.40
2017-10-26T15:57:29.061Z,50.60
2017-10-26T15:59:57.143Z,51.20
2017-10-26T16:02:25.220Z,51.30
2017-10-26T16:04:54.059Z,51.60
2017-10-26T16:07:22.159Z,51.50
2017-10-26T16:09:50.247Z,51.80
2017-10-26T16:12:18.325Z,51.60
2017-10-26T16:14:47.240Z,51.90
2017-10-26T16:17:15.347Z,51.90
2017-10-26T16:19:43.456Z,51.80
2017-10-26T16:22:11.547Z,52.40
2017-10-26T16:24:40.394Z,52.20
2017-10-26T16:27:08.564Z,52.10
2017-10-26T16:29:36.661Z,52.40
2017-10-26T16:32:04.736Z,52.30
2017-10-26T16:34:32.826Z,52.20
2017-10-26T16:37:01.689Z,52.50
2017-10-26T16:39:29.784Z,52.40
2017-10-26T16:41:58.646Z,52.70
2017-10-26T16:44:26.735Z,52.70
2017-10-26T16:46:54.825Z,53.30
2017-10-26T16:49:23.714Z,53.20
2017-10-26T16:51:52.578Z,53.80
2017-10-26T16:54:20.670Z,53.60
2017-10-26T16:56:49.565Z,54.40
2017-10-26T16:59:18.429Z,53.70
2017-10-26T17:01:46.525Z,53.60
2017-10-26T17:04:15.388Z,53.60
2017-10-26T17:06:43.474Z,53.60
2017-10-26T17:09:11.577Z,53.60
2017-10-26T17:11:40.450Z,53.70
2017-10-26T17:14:08.539Z,53.60
2017-10-26T17:16:37.393Z,52.60
2017-10-26T17:19:05.544Z,52.50
2017-10-26T17:21:34.605Z,53.10
2017-10-26T17:24:03.473Z,53.10
2017-10-26T17:26:31.614Z,53.00
2017-10-26T17:28:59.722Z,52.30
2017-10-26T17:31:27.795Z,52.50
2017-10-26T17:33:55.893Z,51.90
2017-10-26T17:36:23.986Z,52.00
2017-10-26T17:38:52.085Z,52.20
2017-10-26T17:41:20.160Z,52.20
2017-10-26T17:43:48.253Z,52.30
2017-10-26T17:46:16.341Z,52.40
2017-10-26T17:48:45.202Z,52.20
2017-10-26T17:51:13.298Z,52.10
2017-10-26T17:53:42.195Z,52.20
2017-10-26T17:56:11.062Z,52.40
2017-10-26T17:58:39.157Z,52.30
2017-10-26T18:01:08.015Z,53.10
2017-10-26T18:03:36.093Z,53.00
2017-10-26T18:06:04.179Z,53.10
2017-10-26T18:08:32.321Z,53.40
2017-10-26T18:11:00.414Z,53.40
2017-10-26T18:13:28.500Z,53.50
2017-10-26T18:15:56.598Z,53.50
2017-10-26T18:18:24.692Z,53.50
2017-10-26T18:20:52.785Z,53.40
2017-10-26T18:23:20.868Z,53.30
2017-10-26T18:25:48.964Z,53.30
2017-10-26T18:28:17.047Z,53.30
2017-10-26T18:30:45.143Z,53.40
2017-10-26T18:33:13.232Z,53.30
2017-10-26T18:35:41.325Z,53.30
2017-10-26T18:38:09.413Z,53.30
2017-10-26T18:40:37.505Z,53.30
2017-10-26T18:43:05.597Z,53.20
2017-10-26T18:45:34.461Z,53.40
2017-10-26T18:48:02.552Z,53.20
2017-10-26T18:50:30.680Z,53.40
2017-10-26T18:52:58.786Z,53.30
2017-10-26T18:55:26.879Z,53.30
2017-10-26T18:57:55.748Z,54.40
2017-10-26T19:00:23.845Z,54.40
2017-10-26T19:02:52.709Z,54.60
2017-10-26T19:05:20.810Z,54.60
2017-10-26T19:07:49.668Z,54.80
2017-10-26T19:10:17.777Z,54.70
2017-10-26T19:12:46.649Z,55.00
2017-10-26T19:15:14.738Z,54.90
2017-10-26T19:17:43.593Z,55.30
2017-10-26T19:20:11.677Z,55.20
2017-10-26T19:22:39.764Z,55.30
2017-10-26T19:25:08.620Z,55.60
2017-10-26T19:27:36.715Z,55.50
2017-10-26T19:30:04.810Z,55.50
2017-10-26T19:32:33.661Z,56.30
2017-10-26T19:35:01.785Z,56.20
2017-10-26T19:37:29.860Z,56.40
2017-10-26T19:39:57.967Z,56.80
2017-10-26T19:42:26.059Z,56.90
2017-10-26T19:44:54.227Z,56.80
2017-10-26T19:47:22.297Z,57.00
2017-10-26T19:49:50.473Z,57.50
2017-10-26T19:52:18.551Z,57.90
2017-10-26T19:54:46.665Z,58.20
2017-10-26T19:57:15.510Z,58.40
2017-10-26T19:59:43.605Z,58.30
2017-10-26T20:02:12.480Z,58.90
2017-10-26T20:04:40.572Z,58.80
2017-10-26T20:07:08.644Z,58.60
2017-10-26T20:09:36.796Z,58.50
2017-10-26T20:12:04.936Z,58.10
2017-10-26T20:14:33.024Z,58.00
2017-10-26T20:17:01.876Z,57.70
2017-10-26T20:19:30.736Z,57.90
2017-10-26T20:21:58.820Z,57.90
2017-10-26T20:24:27.684Z,58.40
2017-10-26T20:26:55.780Z,58.30
2017-10-26T20:29:23.876Z,58.00
2017-10-26T20:31:52.753Z,58.50
2017-10-26T20:34:21.611Z,58.70
2017-10-26T20:36:49.713Z,58.60
2017-10-26T20:39:18.579Z,58.20
2017-10-26T20:41:47.308Z,58.00
2017-10-26T20:44:16.169Z,59.20
2017-10-26T20:46:44.259Z,59.20
2017-10-26T20:49:18.824Z,59.10
2017-10-26T20:51:52.592Z,59.00
2017-10-26T20:54:27.170Z,58.80
2017-10-26T20:57:00.772Z,58.80
2017-10-26T20:59:34.527Z,58.60
2017-10-26T21:05:22.639Z,58.30
2017-10-26T21:07:56.665Z,59.00
2017-10-26T21:10:30.323Z,58.70
2017-10-26T21:13:03.972Z,58.90
2017-10-26T21:15:32.074Z,59.20
2017-10-26T21:18:00.938Z,59.20
2017-10-26T21:20:29.032Z,59.00
2017-10-26T21:22:57.109Z,58.90
2017-10-26T21:25:25.235Z,59.10
2017-10-26T21:27:53.316Z,59.80
2017-10-26T21:30:21.414Z,60.30
2017-10-26T21:32:49.508Z,60.30
2017-10-26T21:35:18.744Z,60.30
2017-10-26T21:37:46.844Z,60.20
2017-10-26T21:40:14.943Z,60.40
2017-10-26T21:42:43.021Z,60.40
2017-10-26T21:45:11.867Z,59.80
2017-10-26T21:47:39.994Z,59.80
2017-10-26T21:50:08.839Z,60.10
2017-10-26T21:52:36.919Z,60.00
2017-10-26T21:55:05.043Z,59.70
2017-10-26T21:57:33.150Z,60.00
2017-10-26T22:00:01.236Z,60.40
2017-10-26T22:02:29.344Z,59.60
2017-10-26T22:04:58.202Z,60.60
2017-10-26T22:07:26.295Z,60.40
2017-10-26T22:09:54.390Z,59.70
2017-10-26T22:12:23.342Z,60.50
2017-10-26T22:14:52.169Z,60.30
2017-10-26T22:17:21.041Z,60.50
2017-10-26T22:19:49.160Z,60.40
2017-10-26T22:22:17.249Z,60.40
2017-10-26T22:24:45.346Z,60.30
2017-10-26T22:27:13.445Z,60.30
2017-10-26T22:29:42.312Z,59.80
2017-10-26T22:32:10.418Z,59.80
2017-10-26T22:34:39.282Z,59.30
2017-10-26T22:37:07.372Z,59.20
2017-10-26T22:39:36.225Z,59.70
2017-10-26T22:42:04.321Z,59.70
2017-10-26T22:44:32.399Z,59.50
2017-10-26T22:47:00.517Z,59.00
2017-10-26T22:49:28.606Z,58.80
2017-10-26T22:51:56.695Z,58.70
2017-10-26T22:54:24.792Z,59.10
2017-10-26T22:56:52.884Z,58.90
2017-10-26T22:59:21.733Z,59.60
2017-10-26T23:01:49.828Z,59.50
2017-10-26T23:04:17.916Z,59.40
2017-10-26T23:06:46.783Z,59.90
2017-10-26T23:09:14.868Z,59.90
2017-10-26T23:11:43.749Z,58.90
2017-10-26T23:14:11.841Z,58.80
2017-10-26T23:16:40.708Z,58.60
2017-10-26T23:19:08.807Z,58.50
2017-10-26T23:21:37.683Z,58.20
2017-10-26T23:24:05.763Z,58.10
2017-10-26T23:26:34.628Z,58.40
2017-10-26T23:29:02.721Z,58.20
2017-10-26T23:31:30.844Z,58.30
2017-10-26T23:33:58.927Z,58.80
2017-10-26T23:36:27.025Z,58.90
2017-10-26T23:38:55.121Z,60.00
2017-10-26T23:41:23.988Z,60.80
2017-10-26T23:43:52.085Z,60.70
2017-10-26T23:46:20.947Z,61.30
2017-10-26T23:48:49.033Z,62.00
2017-10-26T23:51:17.123Z,61.40
2017-10-26T23:53:45.977Z,61.20
2017-10-26T23:56:14.071Z,61.10
2017-10-26T23:58:42.220Z,61.50
